createdAt,value
2018-01-08T00:00:33.383Z,12.25
2018-01-08T00:01:37.845Z,16.73
2018-01-08T00:02:42.317Z,13.90
2018-01-08T00:03:46.792Z,12.07
2018-01-08T00:04:52.014Z,11.75
2018-01-08T00:05:56.495Z,6.87
2018-01-08T00:07:00.951Z,12.20
2018-01-08T00:08:06.197Z,11.95
2018-01-08T00:09:10.743Z,12.43
2018-01-08T00:10:21.253Z,11.50
2018-01-08T00:11:26.272Z,9.13
2018-01-08T00:12:31.580Z,7.40
2018-01-08T00:13:36.134Z,11.85
2018-01-08T00:14:40.689Z,13.43
2018-01-08T00:15:45.165Z,12.25
2018-01-08T00:16:49.671Z,14.32
2018-01-08T00:17:54.226Z,10.30
2018-01-08T00:18:58.720Z,15.90
2018-01-08T00:20:03.239Z,13.50
2018-01-08T00:21:07.717Z,16.08
2018-01-08T00:22:13.044Z,9.27
2018-01-08T00:23:17.516Z,11.25
2018-01-08T00:24:21.967Z,12.80
2018-01-08T00:25:26.444Z,15.90
2018-01-08T00:26:30.902Z,13.38
2018-01-08T00:27:35.445Z,11.90
2018-01-08T00:28:39.920Z,12.00
2018-01-08T00:29:44.399Z,17.60
2018-01-08T00:30:49.662Z,15.30
2018-01-08T00:31:54.141Z,9.88
2018-01-08T00:32:59.385Z,14.00
2018-01-08T00:34:03.852Z,14.18
2018-01-08T00:35:08.333Z,12.73
2018-01-08T00:36:12.808Z,17.55
2018-01-08T00:37:18.060Z,14.50
2018-01-08T00:38:22.554Z,15.05
2018-01-08T00:39:27.040Z,14.52
2018-01-08T00:40:31.514Z,19.83
2018-01-08T00:41:35.988Z,12.45
2018-01-08T00:42:41.246Z,22.98
2018-01-08T00:43:45.760Z,18.35
2018-01-08T00:44:50.978Z,13.32
2018-01-08T00:45:55.476Z,18.35
2018-01-08T00:46:59.957Z,17.45
2018-01-08T00:48:04.412Z,14.07
2018-01-08T00:49:08.898Z,15.90
2018-01-08T00:50:14.126Z,18.20
2018-01-08T00:51:19.376Z,16.52
2018-01-08T00:52:23.852Z,14.38
2018-01-08T00:53:28.323Z,17.00
2018-01-08T00:54:32.841Z,20.42
2018-01-08T00:55:36.970Z,15.73
2018-01-08T00:56:41.435Z,15.32
2018-01-08T00:57:46.737Z,19.08
2018-01-08T00:58:51.234Z,15.48
2018-01-08T00:59:55.734Z,16.98
2018-01-08T01:01:00.213Z,18.25
2018-01-08T01:02:04.681Z,16.08
2018-01-08T01:03:09.165Z,18.50
2018-01-08T01:04:13.630Z,16.50
2018-01-08T01:05:19.199Z,16.83
2018-01-08T01:06:23.682Z,16.90
2018-01-08T01:07:28.897Z,14.07
2018-01-08T01:08:34.140Z,17.55
2018-01-08T01:09:39.379Z,13.85
2018-01-08T01:10:43.890Z,15.77
2018-01-08T01:11:48.389Z,16.95
2018-01-08T01:12:53.641Z,16.20
2018-01-08T01:13:58.107Z,16.12
2018-01-08T01:15:03.341Z,18.70
2018-01-08T01:16:07.853Z,18.25
2018-01-08T01:17:13.822Z,15.45
2018-01-08T01:18:19.056Z,16.02
2018-01-08T01:19:23.537Z,18.00
2018-01-08T01:20:28.022Z,16.48
2018-01-08T01:21:32.525Z,17.37
2018-01-08T01:22:36.988Z,13.15
2018-01-08T01:23:42.229Z,14.23
2018-01-08T01:24:47.467Z,16.00
2018-01-08T01:25:51.953Z,17.52
2018-01-08T01:26:56.453Z,13.57
2018-01-08T01:28:00.927Z,14.02
2018-01-08T01:29:05.399Z,11.60
2018-01-08T01:30:10.643Z,18.20
2018-01-08T01:31:15.117Z,18.12
2018-01-08T01:32:19.601Z,11.00
2018-01-08T01:33:24.080Z,12.07
2018-01-08T01:34:29.321Z,11.32
2018-01-08T01:35:33.778Z,13.32
2018-01-08T01:36:38.237Z,12.52
2018-01-08T01:37:42.745Z,12.80
2018-01-08T01:38:47.212Z,13.80
2018-01-08T01:39:51.692Z,18.30
2018-01-08T01:40:56.154Z,15.52
2018-01-08T01:42:00.609Z,14.70
2018-01-08T01:43:05.120Z,12.60
2018-01-08T01:44:09.577Z,13.82
2018-01-08T01:45:14.034Z,15.35
2018-01-08T01:46:18.494Z,14.45
2018-01-08T01:47:22.963Z,14.65
2018-01-08T01:48:27.677Z,12.27
2018-01-08T01:49:32.150Z,17.17
2018-01-08T01:50:37.382Z,14.98
2018-01-08T01:51:42.637Z,15.43
2018-01-08T01:52:47.228Z,16.12
2018-01-08T01:53:51.702Z,15.27
2018-01-08T01:54:56.162Z,13.40
2018-01-08T01:56:00.728Z,15.98
2018-01-08T01:57:05.204Z,11.93
2018-01-08T01:58:09.662Z,13.27
2018-01-08T01:59:14.157Z,15.93
2018-01-08T02:00:18.621Z,14.18
2018-01-08T02:01:23.523Z,13.85
2018-01-08T02:02:28.007Z,15.65
2018-01-08T02:03:32.498Z,15.10
2018-01-08T02:04:37.009Z,13.62
2018-01-08T02:05:41.483Z,11.02
2018-01-08T02:06:45.978Z,15.45
2018-01-08T02:07:50.450Z,15.82
2018-01-08T02:08:54.918Z,16.00
2018-01-08T02:09:59.413Z,16.92
2018-01-08T02:11:03.946Z,14.13
2018-01-08T02:12:09.944Z,13.25
2018-01-08T02:13:14.425Z,17.15
2018-01-08T02:14:19.678Z,22.48
2018-01-08T02:15:24.149Z,12.43
2018-01-08T02:16:29.396Z,15.65
2018-01-08T02:17:34.624Z,15.52
2018-01-08T02:18:39.854Z,12.23
2018-01-08T02:19:45.100Z,11.23
2018-01-08T02:20:49.585Z,15.57
2018-01-08T02:21:54.849Z,15.43
2018-01-08T02:22:59.329Z,18.45
2018-01-08T02:24:04.588Z,15.50
2018-01-08T02:25:09.168Z,16.02
2018-01-08T02:26:13.646Z,14.30
2018-01-08T02:27:18.180Z,19.08
2018-01-08T02:28:24.168Z,12.48
2018-01-08T02:29:28.620Z,13.70
2018-01-08T02:30:34.589Z,16.27
2018-01-08T02:31:39.876Z,16.95
2018-01-08T02:32:44.348Z,16.70
2018-01-08T02:33:49.578Z,18.65
2018-01-08T02:34:54.955Z,20.40
2018-01-08T02:35:59.423Z,14.15
2018-01-08T02:37:04.702Z,16.42
2018-01-08T02:38:09.197Z,15.77
2018-01-08T02:39:13.669Z,15.07
2018-01-08T02:40:18.919Z,16.42
2018-01-08T02:41:23.382Z,18.90
2018-01-08T02:42:27.901Z,16.48
2018-01-08T02:43:32.405Z,20.40
2018-01-08T02:44:36.867Z,16.23
2018-01-08T02:45:41.357Z,18.42
2018-01-08T02:46:46.837Z,17.10
2018-01-08T02:47:51.331Z,19.23
2018-01-08T02:48:55.804Z,17.80
2018-01-08T02:50:00.387Z,17.87
2018-01-08T02:51:05.048Z,15.70
2018-01-08T02:52:10.313Z,13.82
2018-01-08T02:53:14.825Z,15.38
2018-01-08T02:54:19.321Z,17.87
2018-01-08T02:55:23.790Z,18.90
2018-01-08T02:56:28.289Z,17.02
2018-01-08T02:57:32.781Z,17.33
2018-01-08T02:58:37.299Z,19.12
2018-01-08T02:59:41.784Z,17.10
2018-01-08T03:00:46.370Z,18.80
2018-01-08T03:01:51.593Z,19.73
2018-01-08T03:02:56.829Z,19.25
2018-01-08T03:04:02.096Z,22.02
2018-01-08T03:05:07.350Z,19.55
2018-01-08T03:06:11.832Z,16.58
2018-01-08T03:07:16.294Z,17.30
2018-01-08T03:08:20.777Z,13.77
2018-01-08T03:09:25.401Z,19.37
2018-01-08T03:10:29.880Z,16.62
2018-01-08T03:11:34.367Z,21.00
2018-01-08T03:12:39.619Z,17.02
2018-01-08T03:13:44.079Z,15.82
2018-01-08T03:14:48.589Z,15.43
2018-01-08T03:15:53.068Z,15.15
2018-01-08T03:16:57.554Z,18.80
2018-01-08T03:18:02.421Z,17.70
2018-01-08T03:19:06.900Z,11.75
2018-01-08T03:20:11.424Z,17.80
2018-01-08T03:21:15.913Z,18.98
2018-01-08T03:22:20.373Z,20.88
2018-01-08T03:23:24.853Z,21.45
2018-01-08T03:24:29.345Z,16.75
2018-01-08T03:25:33.854Z,16.30
2018-01-08T03:26:38.317Z,16.17
2018-01-08T03:27:42.808Z,18.77
2018-01-08T03:28:47.296Z,19.48
2018-01-08T03:29:51.776Z,21.05
2018-01-08T03:30:56.531Z,21.12
2018-01-08T03:32:01.002Z,18.98
2018-01-08T03:33:05.466Z,18.30
2018-01-08T03:34:10.004Z,17.73
2018-01-08T03:35:14.481Z,15.18
2018-01-08T03:36:18.993Z,20.60
2018-01-08T03:37:23.477Z,17.25
2018-01-08T03:38:28.718Z,15.50
2018-01-08T03:39:33.213Z,21.33
2018-01-08T03:40:38.445Z,23.25
2018-01-08T03:41:43.734Z,22.40
2018-01-08T03:42:48.444Z,23.27
2018-01-08T03:43:52.914Z,20.23
2018-01-08T03:44:57.413Z,18.45
2018-01-08T03:46:02.642Z,21.30
2018-01-08T03:47:07.906Z,21.42
2018-01-08T03:48:12.374Z,20.40
2018-01-08T03:49:16.843Z,17.98
2018-01-08T03:50:21.324Z,21.92
2018-01-08T03:51:25.816Z,22.17
2018-01-08T03:52:31.089Z,18.90
2018-01-08T03:53:35.572Z,19.25
2018-01-08T03:54:40.824Z,18.00
2018-01-08T03:55:46.097Z,24.45
2018-01-08T03:56:50.594Z,23.85
2018-01-08T03:57:55.108Z,15.60
2018-01-08T03:58:59.574Z,22.23
2018-01-08T04:00:04.057Z,23.38
2018-01-08T04:01:09.282Z,19.73
2018-01-08T04:02:13.745Z,10.13
2018-01-08T04:03:18.237Z,21.20
2018-01-08T04:04:22.720Z,18.15
2018-01-08T04:05:27.191Z,26.05
2018-01-08T04:06:31.672Z,20.48
2018-01-08T04:07:36.184Z,17.15
2018-01-08T04:08:40.678Z,17.25
2018-01-08T04:09:45.930Z,18.90
2018-01-08T04:10:50.404Z,24.10
2018-01-08T04:11:54.878Z,15.85
2018-01-08T04:12:59.578Z,23.12
2018-01-08T04:14:04.101Z,20.85
2018-01-08T04:15:08.570Z,21.80
2018-01-08T04:16:13.825Z,16.00
2018-01-08T04:17:18.281Z,17.45
2018-01-08T04:18:22.758Z,21.90
2018-01-08T04:19:27.277Z,18.73
2018-01-08T04:20:31.767Z,21.85
2018-01-08T04:21:36.229Z,23.67
2018-01-08T04:22:41.485Z,20.60
2018-01-08T04:23:46.745Z,20.08
2018-01-08T04:24:51.261Z,25.20
2018-01-08T04:25:55.750Z,21.02
2018-01-08T04:27:00.994Z,25.77
2018-01-08T04:28:05.250Z,20.77
2018-01-08T04:29:09.729Z,21.70
2018-01-08T04:30:14.214Z,23.90
2018-01-08T04:31:18.682Z,23.08
2018-01-08T04:32:23.202Z,23.30
2018-01-08T04:33:27.705Z,17.02
2018-01-08T04:34:32.163Z,24.87
2018-01-08T04:35:36.664Z,24.63
2018-01-08T04:36:41.890Z,24.52
2018-01-08T04:37:47.120Z,25.55
2018-01-08T04:38:52.382Z,22.55
2018-01-08T04:39:56.844Z,24.55
2018-01-08T04:41:01.397Z,17.87
2018-01-08T04:42:05.890Z,21.42
2018-01-08T04:43:11.118Z,24.95
2018-01-08T04:44:16.366Z,25.90
2018-01-08T04:45:20.830Z,25.08
2018-01-08T04:46:25.344Z,18.83
2018-01-08T04:47:30.574Z,15.73
2018-01-08T04:48:35.065Z,20.05
2018-01-08T04:49:39.569Z,20.48
2018-01-08T04:50:44.052Z,18.33
2018-01-08T04:51:48.567Z,20.58
2018-01-08T04:52:53.047Z,19.42
2018-01-08T04:53:58.288Z,22.50
2018-01-08T04:55:03.539Z,23.65
2018-01-08T04:56:08.026Z,25.62
2018-01-08T04:57:13.297Z,20.95
2018-01-08T04:58:17.762Z,21.58
2018-01-08T04:59:23.006Z,17.40
2018-01-08T05:00:27.496Z,19.05
2018-01-08T05:01:31.967Z,27.67
2018-01-08T05:02:36.468Z,13.07
2018-01-08T05:03:40.602Z,25.92
2018-01-08T05:04:45.089Z,22.13
2018-01-08T05:05:50.329Z,25.02
2018-01-08T05:06:54.955Z,27.02
2018-01-08T05:07:59.670Z,23.52
2018-01-08T05:09:03.569Z,20.70
2018-01-08T05:10:08.038Z,23.90
2018-01-08T05:11:12.505Z,25.35
2018-01-08T05:12:17.004Z,21.75
2018-01-08T05:13:21.509Z,26.20
2018-01-08T05:14:26.021Z,20.88
2018-01-08T05:15:30.489Z,24.20
2018-01-08T05:16:34.958Z,23.48
2018-01-08T05:17:39.437Z,23.67
2018-01-08T05:18:44.415Z,26.50
2018-01-08T05:19:48.897Z,26.37
2018-01-08T05:20:53.386Z,30.12
2018-01-08T05:21:57.838Z,25.37
2018-01-08T05:23:03.097Z,24.58
2018-01-08T05:24:07.610Z,22.17
2018-01-08T05:25:12.892Z,33.00
2018-01-08T05:26:17.376Z,32.83
2018-01-08T05:27:21.830Z,25.58
2018-01-08T05:28:25.992Z,21.08
2018-01-08T05:29:30.505Z,22.20
2018-01-08T05:30:34.987Z,25.90
2018-01-08T05:31:40.240Z,22.95
2018-01-08T05:32:44.782Z,25.70
2018-01-08T05:33:49.253Z,26.75
2018-01-08T05:34:53.753Z,25.48
2018-01-08T05:35:58.252Z,29.40
2018-01-08T05:37:02.778Z,24.48
2018-01-08T05:38:08.029Z,27.27
2018-01-08T05:39:12.517Z,27.00
2018-01-08T05:40:17.778Z,17.67
2018-01-08T05:41:22.260Z,27.35
2018-01-08T05:42:27.501Z,27.02
2018-01-08T05:43:31.971Z,23.10
2018-01-08T05:44:36.461Z,26.95
2018-01-08T05:45:40.985Z,25.45
2018-01-08T05:46:45.474Z,18.02
2018-01-08T05:47:49.942Z,20.42
2018-01-08T05:48:55.246Z,30.10
2018-01-08T05:49:59.719Z,19.33
2018-01-08T05:51:03.914Z,28.75
2018-01-08T05:52:08.389Z,27.00
2018-01-08T05:53:13.630Z,18.42
2018-01-08T05:54:18.884Z,15.88
2018-01-08T05:55:23.362Z,22.83
2018-01-08T05:56:28.661Z,23.85
2018-01-08T05:57:33.914Z,24.67
2018-01-08T05:58:38.396Z,22.45
2018-01-08T05:59:42.876Z,26.90
2018-01-08T06:00:47.345Z,24.83
2018-01-08T06:01:51.847Z,22.77
2018-01-08T06:02:56.428Z,24.30
2018-01-08T06:04:00.905Z,21.83
2018-01-08T06:05:06.138Z,24.23
2018-01-08T06:06:11.426Z,27.13
2018-01-08T06:07:15.949Z,30.15
2018-01-08T06:08:20.410Z,30.83
2018-01-08T06:09:24.888Z,26.15
2018-01-08T06:10:30.127Z,28.80
2018-01-08T06:11:35.383Z,25.08
2018-01-08T06:12:39.909Z,22.17
2018-01-08T06:13:44.389Z,27.20
2018-01-08T06:14:49.614Z,22.58
2018-01-08T06:15:54.102Z,23.65
2018-01-08T06:16:58.568Z,25.12
2018-01-08T06:18:03.087Z,23.00
2018-01-08T06:19:07.576Z,22.40
2018-01-08T06:20:12.058Z,29.65
2018-01-08T06:21:17.296Z,25.37
2018-01-08T06:22:21.754Z,29.80
2018-01-08T06:23:26.304Z,23.90
2018-01-08T06:24:30.781Z,23.30
2018-01-08T06:25:35.263Z,30.23
2018-01-08T06:26:40.538Z,20.45
2018-01-08T06:27:45.017Z,26.70
2018-01-08T06:28:50.271Z,26.08
2018-01-08T06:29:54.734Z,24.10
2018-01-08T06:30:59.210Z,31.70
2018-01-08T06:32:03.704Z,30.75
2018-01-08T06:33:08.178Z,27.05
2018-01-08T06:34:13.449Z,29.40
2018-01-08T06:35:17.937Z,31.70
2018-01-08T06:36:23.158Z,25.12
2018-01-08T06:37:27.649Z,28.92
2018-01-08T06:38:32.129Z,28.85
2018-01-08T06:39:36.625Z,29.80
2018-01-08T06:40:41.107Z,24.85
2018-01-08T06:41:46.334Z,26.35
2018-01-08T06:42:51.590Z,31.67
2018-01-08T06:43:56.049Z,27.02
2018-01-08T06:45:00.576Z,30.88
2018-01-08T06:46:05.831Z,32.03
2018-01-08T06:47:10.771Z,29.42
2018-01-08T06:48:15.257Z,24.70
2018-01-08T06:49:20.520Z,33.42
2018-01-08T06:50:25.024Z,27.23
2018-01-08T06:51:29.318Z,31.65
2018-01-08T06:52:33.785Z,30.45
2018-01-08T06:53:38.282Z,29.92
2018-01-08T06:54:42.763Z,33.03
2018-01-08T06:55:47.269Z,32.10
2018-01-08T06:56:51.758Z,33.38
2018-01-08T06:57:56.977Z,28.87
2018-01-08T06:59:02.234Z,29.92
2018-01-08T07:00:06.073Z,26.60
2018-01-08T07:01:10.566Z,26.73
2018-01-08T07:02:14.693Z,26.58
2018-01-08T07:03:19.185Z,32.05
2018-01-08T07:04:23.668Z,33.15
2018-01-08T07:05:28.154Z,31.20
2018-01-08T07:06:33.429Z,31.67
2018-01-08T07:07:37.886Z,30.05
2018-01-08T07:08:42.369Z,30.58
2018-01-08T07:09:46.844Z,25.27
2018-01-08T07:10:51.350Z,26.27
2018-01-08T07:11:55.855Z,29.52
2018-01-08T07:13:00.342Z,21.05
2018-01-08T07:14:04.840Z,31.73
2018-01-08T07:15:09.302Z,26.60
2018-01-08T07:16:13.780Z,27.85
2018-01-08T07:17:18.272Z,29.58
2018-01-08T07:18:22.751Z,32.15
2018-01-08T07:19:27.210Z,25.77
2018-01-08T07:20:31.677Z,29.20
2018-01-08T07:21:36.160Z,29.02
2018-01-08T07:22:41.425Z,33.22
2018-01-08T07:23:45.682Z,24.40
2018-01-08T07:24:50.953Z,22.42
2018-01-08T07:25:55.413Z,25.00
2018-01-08T07:26:59.892Z,30.67
2018-01-08T07:28:04.398Z,31.62
2018-01-08T07:29:08.890Z,30.67
2018-01-08T07:30:13.387Z,29.80
2018-01-08T07:31:17.890Z,20.52
2018-01-08T07:32:22.346Z,27.33
2018-01-08T07:33:26.846Z,29.23
2018-01-08T07:34:31.345Z,24.63
2018-01-08T07:35:36.044Z,28.67
2018-01-08T07:36:41.262Z,27.17
2018-01-08T07:37:46.500Z,27.30
2018-01-08T07:38:52.031Z,24.58
2018-01-08T07:39:56.688Z,26.48
2018-01-08T07:41:01.172Z,28.20
2018-01-08T07:42:06.394Z,26.83
2018-01-08T07:43:11.627Z,27.98
2018-01-08T07:44:16.911Z,29.60
2018-01-08T07:45:21.393Z,27.30
2018-01-08T07:46:25.861Z,24.20
2018-01-08T07:47:30.352Z,24.00
2018-01-08T07:48:34.840Z,22.37
2018-01-08T07:49:39.158Z,33.17
2018-01-08T07:50:43.625Z,27.60
2018-01-08T07:51:49.016Z,28.95
2018-01-08T07:52:53.505Z,30.02
2018-01-08T07:53:57.965Z,26.00
2018-01-08T07:55:02.480Z,31.75
2018-01-08T07:56:07.738Z,27.45
2018-01-08T07:57:12.228Z,23.58
2018-01-08T07:58:17.480Z,29.37
2018-01-08T07:59:21.942Z,30.25
2018-01-08T08:00:27.246Z,30.33
2018-01-08T08:01:31.710Z,28.45
2018-01-08T08:02:36.239Z,20.30
2018-01-08T08:03:40.944Z,30.02
2018-01-08T08:04:46.194Z,19.48
2018-01-08T08:05:51.487Z,24.83
2018-01-08T08:06:56.000Z,25.85
2018-01-08T08:08:00.462Z,29.48
2018-01-08T08:09:04.288Z,27.77
2018-01-08T08:10:08.757Z,26.15
2018-01-08T08:11:14.053Z,31.33
2018-01-08T08:12:18.510Z,25.25
2018-01-08T08:13:23.003Z,27.98
2018-01-08T08:14:28.239Z,19.45
2018-01-08T08:15:33.291Z,29.90
2018-01-08T08:16:37.834Z,28.98
2018-01-08T08:17:42.312Z,23.33
2018-01-08T08:18:46.804Z,17.73
2018-01-08T08:19:52.031Z,28.42
2018-01-08T08:20:57.277Z,28.87
2018-01-08T08:22:02.106Z,30.33
2018-01-08T08:23:07.353Z,26.37
2018-01-08T08:24:11.876Z,27.27
2018-01-08T08:25:17.799Z,26.52
2018-01-08T08:26:22.346Z,21.20
2018-01-08T08:27:26.842Z,31.58
2018-01-08T08:28:31.330Z,22.52
2018-01-08T08:29:35.801Z,25.15
2018-01-08T08:30:41.061Z,31.65
2018-01-08T08:31:45.522Z,26.00
2018-01-08T08:32:50.019Z,30.80
2018-01-08T08:33:54.561Z,18.92
2018-01-08T08:34:59.801Z,17.73
2018-01-08T08:36:05.053Z,21.08
2018-01-08T08:37:09.584Z,24.65
2018-01-08T08:38:14.125Z,31.37
2018-01-08T08:39:18.612Z,29.50
2018-01-08T08:40:23.093Z,30.33
2018-01-08T08:41:28.330Z,26.35
2018-01-08T08:42:32.480Z,30.75
2018-01-08T08:43:36.998Z,27.55
2018-01-08T08:44:41.768Z,31.27
2018-01-08T08:45:46.239Z,27.95
2018-01-08T08:46:50.725Z,28.20
2018-01-08T08:47:55.201Z,26.10
2018-01-08T08:48:59.693Z,24.85
2018-01-08T08:50:04.931Z,26.33
2018-01-08T08:51:10.184Z,26.77
2018-01-08T08:52:14.665Z,26.70
2018-01-08T08:53:19.893Z,23.85
2018-01-08T08:54:24.424Z,22.83
2018-01-08T08:55:28.905Z,27.30
2018-01-08T08:56:33.401Z,28.23
2018-01-08T08:57:37.874Z,25.48
2018-01-08T08:58:42.367Z,26.62
2018-01-08T08:59:46.868Z,28.77
2018-01-08T09:00:52.122Z,31.17
2018-01-08T09:01:56.611Z,20.98
2018-01-08T09:03:01.857Z,25.98
2018-01-08T09:04:06.327Z,23.48
2018-01-08T09:05:10.823Z,18.02
2018-01-08T09:06:15.307Z,16.85
2018-01-08T09:07:19.801Z,21.33
2018-01-08T09:08:24.282Z,21.92
2018-01-08T09:09:28.867Z,21.77
2018-01-08T09:10:33.353Z,24.83
2018-01-08T09:11:37.818Z,23.27
2018-01-08T09:12:43.050Z,24.77
2018-01-08T09:13:48.289Z,25.42
2018-01-08T09:14:53.576Z,22.30
2018-01-08T09:16:00.338Z,22.58
2018-01-08T09:17:07.371Z,27.13
2018-01-08T09:18:11.839Z,18.65
2018-01-08T09:19:16.313Z,28.10
2018-01-08T09:20:20.801Z,23.73
2018-01-08T09:21:25.316Z,23.90
2018-01-08T09:22:29.779Z,27.55
2018-01-08T09:23:34.257Z,23.95
2018-01-08T09:24:38.766Z,22.42
2018-01-08T09:25:42.925Z,21.10
2018-01-08T09:26:47.433Z,22.73
2018-01-08T09:27:51.911Z,23.30
2018-01-08T09:28:56.389Z,26.05
2018-01-08T09:30:00.870Z,21.58
2018-01-08T09:31:05.354Z,23.80
2018-01-08T09:32:09.862Z,21.85
2018-01-08T09:33:14.352Z,23.00
2018-01-08T09:34:18.815Z,25.62
2018-01-08T09:35:24.067Z,20.25
2018-01-08T09:36:29.453Z,21.62
2018-01-08T09:37:33.634Z,18.83
2018-01-08T09:38:38.174Z,20.45
2018-01-08T09:39:42.656Z,25.05
2018-01-08T09:40:47.152Z,26.87
2018-01-08T09:41:51.644Z,23.42
2018-01-08T09:42:56.903Z,14.02
2018-01-08T09:44:01.385Z,28.35
2018-01-08T09:45:06.628Z,21.75
2018-01-08T09:46:11.365Z,18.58
2018-01-08T09:47:15.832Z,20.80
2018-01-08T09:48:20.345Z,25.30
2018-01-08T09:49:24.833Z,19.70
2018-01-08T09:50:29.321Z,23.67
2018-01-08T09:51:33.808Z,21.60
2018-01-08T09:52:38.276Z,24.65
2018-01-08T09:53:43.579Z,23.38
2018-01-08T09:54:48.112Z,22.55
2018-01-08T09:55:52.408Z,19.45
2018-01-08T09:56:57.541Z,21.42
2018-01-08T09:58:02.077Z,25.73
2018-01-08T09:59:06.582Z,20.17
2018-01-08T10:00:10.738Z,20.85
2018-01-08T10:01:15.204Z,24.45
2018-01-08T10:02:18.532Z,21.10
2018-01-08T10:03:34.446Z,22.10
2018-01-08T10:04:50.042Z,21.87
2018-01-08T10:06:05.690Z,19.87
2018-01-08T10:07:21.278Z,26.40
2018-01-08T10:08:36.842Z,23.62
2018-01-08T10:09:52.595Z,21.87
2018-01-08T10:11:08.203Z,25.55
2018-01-08T10:12:23.903Z,22.67
2018-01-08T10:13:39.470Z,20.17
2018-01-08T10:14:55.895Z,22.58
2018-01-08T10:16:11.609Z,19.73
2018-01-08T10:17:27.642Z,22.55
2018-01-08T10:18:30.967Z,18.62
2018-01-08T10:19:46.624Z,20.55
2018-01-08T10:20:51.114Z,24.35
2018-01-08T10:21:55.592Z,16.08
2018-01-08T10:23:00.885Z,24.17
2018-01-08T10:24:05.358Z,20.37
2018-01-08T10:25:09.847Z,18.80
2018-01-08T10:26:15.134Z,23.25
2018-01-08T10:27:19.632Z,21.40
2018-01-08T10:28:24.110Z,21.55
2018-01-08T10:29:29.402Z,26.33
2018-01-08T10:30:33.550Z,20.75
2018-01-08T10:31:37.733Z,22.98
2018-01-08T10:32:41.547Z,15.55
2018-01-08T10:33:46.033Z,21.90
2018-01-08T10:34:50.209Z,26.70
2018-01-08T10:35:54.377Z,22.65
2018-01-08T10:36:58.276Z,21.98
2018-01-08T10:38:02.773Z,21.12
2018-01-08T10:39:08.008Z,20.75
2018-01-08T10:40:11.811Z,22.90
2018-01-08T10:41:21.389Z,21.02
2018-01-08T10:42:31.329Z,22.15
2018-01-08T10:43:41.051Z,23.15
2018-01-08T10:44:51.104Z,18.58
2018-01-08T10:46:01.174Z,24.00
2018-01-08T10:47:11.971Z,22.73
2018-01-08T10:48:22.061Z,25.52
2018-01-08T10:49:32.298Z,24.70
2018-01-08T10:50:42.716Z,21.02
2018-01-08T10:51:46.514Z,16.85
2018-01-08T10:53:01.633Z,20.85
2018-01-08T10:54:06.706Z,19.17
2018-01-08T10:55:10.992Z,25.88
2018-01-08T10:56:15.506Z,25.30
2018-01-08T10:57:19.994Z,22.67
2018-01-08T10:58:25.246Z,25.92
2018-01-08T10:59:29.741Z,28.67
2018-01-08T11:00:34.978Z,24.85
2018-01-08T11:01:45.686Z,27.85
2018-01-08T11:02:55.340Z,23.73
2018-01-08T11:04:00.184Z,18.52
2018-01-08T11:05:05.464Z,29.05
2018-01-08T11:06:09.917Z,26.73
2018-01-08T11:07:14.852Z,17.27
2018-01-08T11:08:20.081Z,26.17
2018-01-08T11:09:25.333Z,25.12
2018-01-08T11:10:29.837Z,21.80
2018-01-08T11:11:34.302Z,28.40
2018-01-08T11:12:38.763Z,26.65
2018-01-08T11:13:43.267Z,21.55
2018-01-08T11:14:47.753Z,21.73
2018-01-08T11:15:52.250Z,24.58
2018-01-08T11:16:56.774Z,23.62
2018-01-08T11:18:02.057Z,24.23
2018-01-08T11:19:06.521Z,22.27
2018-01-08T11:20:12.088Z,20.05
2018-01-08T11:21:16.600Z,22.55
2018-01-08T11:22:21.081Z,14.80
2018-01-08T11:23:26.355Z,20.35
2018-01-08T11:24:30.849Z,20.02
2018-01-08T11:25:35.306Z,27.33
2018-01-08T11:26:40.596Z,20.95
2018-01-08T11:27:45.149Z,24.80
2018-01-08T11:28:49.637Z,20.55
2018-01-08T11:29:54.111Z,23.75
2018-01-08T11:30:59.360Z,20.95
2018-01-08T11:32:03.854Z,22.15
2018-01-08T11:33:09.105Z,25.17
2018-01-08T11:34:13.574Z,22.90
2018-01-08T11:35:18.165Z,22.17
2018-01-08T11:36:21.965Z,24.90
2018-01-08T11:37:25.831Z,19.33
2018-01-08T11:38:29.470Z,19.50
2018-01-08T11:39:33.296Z,25.05
2018-01-08T11:40:37.858Z,24.35
2018-01-08T11:41:41.672Z,21.50
2018-01-08T11:42:45.842Z,27.75
2018-01-08T11:43:49.650Z,23.87
2018-01-08T11:44:53.485Z,19.12
2018-01-08T11:45:58.094Z,22.30
2018-01-08T11:47:02.689Z,20.15
2018-01-08T11:48:08.041Z,24.67
2018-01-08T11:49:12.615Z,24.58
2018-01-08T11:50:16.440Z,20.37
2018-01-08T11:51:20.260Z,22.52
2018-01-08T11:52:24.848Z,19.23
2018-01-08T11:53:28.724Z,13.25
2018-01-08T11:54:32.863Z,20.25
2018-01-08T11:55:37.442Z,20.42
2018-01-08T11:56:41.260Z,24.90
2018-01-08T11:57:45.084Z,21.25
2018-01-08T11:58:48.926Z,20.52
2018-01-08T11:59:52.744Z,23.98
2018-01-08T12:00:56.576Z,22.42
2018-01-08T12:02:00.724Z,19.08
2018-01-08T12:03:04.560Z,24.17
2018-01-08T12:04:09.183Z,24.23
2018-01-08T12:05:13.788Z,28.00
2018-01-08T12:06:18.369Z,19.80
2018-01-08T12:07:22.554Z,20.33
2018-01-08T12:08:26.702Z,21.23
2018-01-08T12:09:30.550Z,17.60
2018-01-08T12:10:34.385Z,17.30
2018-01-08T12:11:38.198Z,20.40
2018-01-08T12:12:42.782Z,18.70
2018-01-08T12:13:46.621Z,17.20
2018-01-08T12:14:51.236Z,22.05
2018-01-08T12:15:56.582Z,25.92
2018-01-08T12:17:00.387Z,24.42
2018-01-08T12:18:04.230Z,25.75
2018-01-08T12:19:08.062Z,20.10
2018-01-08T12:20:12.564Z,19.83
2018-01-08T12:21:17.487Z,22.70
2018-01-08T12:22:22.405Z,21.52
2018-01-08T12:23:26.982Z,18.92
2018-01-08T12:24:31.148Z,19.70
2018-01-08T12:25:35.638Z,20.52
2018-01-08T12:26:40.330Z,24.00
2018-01-08T12:27:44.614Z,23.17
2018-01-08T12:28:49.082Z,23.05
2018-01-08T12:29:53.590Z,19.40
2018-01-08T12:30:58.663Z,20.77
2018-01-08T12:32:02.816Z,23.20
2018-01-08T12:33:08.078Z,17.40
2018-01-08T12:34:12.735Z,12.68
2018-01-08T12:35:17.226Z,16.70
2018-01-08T12:36:21.784Z,18.83
2018-01-08T12:37:26.708Z,17.20
2018-01-08T12:38:31.200Z,17.58
2018-01-08T12:39:35.788Z,18.60
2018-01-08T12:40:40.454Z,18.83
2018-01-08T12:41:44.963Z,17.12
2018-01-08T12:42:49.456Z,17.77
2018-01-08T12:43:53.591Z,31.80
2018-01-08T12:44:57.736Z,15.93
2018-01-08T12:46:02.198Z,17.42
2018-01-08T12:47:06.737Z,16.73
2018-01-08T12:48:11.217Z,16.58
2018-01-08T12:49:16.106Z,11.98
2018-01-08T12:50:19.926Z,14.13
2018-01-08T12:51:25.150Z,13.55
2018-01-08T12:52:29.652Z,11.55
2018-01-08T12:53:34.116Z,11.80
2018-01-08T12:54:38.273Z,16.20
2018-01-08T12:55:43.509Z,16.98
2018-01-08T12:56:48.784Z,13.55
2018-01-08T12:57:52.960Z,18.80
2018-01-08T12:58:58.191Z,14.00
2018-01-08T13:00:02.680Z,13.20
2018-01-08T13:01:07.290Z,17.90
2018-01-08T13:02:11.113Z,16.58
2018-01-08T13:03:14.951Z,12.55
2018-01-08T13:04:18.780Z,17.85
2018-01-08T13:05:22.929Z,16.27
2018-01-08T13:06:26.732Z,14.68
2018-01-08T13:07:30.548Z,11.10
2018-01-08T13:08:34.725Z,13.93
2018-01-08T13:09:39.181Z,12.93
2018-01-08T13:10:43.660Z,12.60
2018-01-08T13:11:48.129Z,17.50
2018-01-08T13:12:53.388Z,17.33
2018-01-08T13:13:57.896Z,15.52
2018-01-08T13:15:02.063Z,13.18
2018-01-08T13:16:06.207Z,9.15
2018-01-08T13:17:10.685Z,13.93
2018-01-08T13:18:15.174Z,10.38
2018-01-08T13:19:19.686Z,18.00
2018-01-08T13:20:24.188Z,14.82
2018-01-08T13:21:28.660Z,13.75
2018-01-08T13:22:33.128Z,10.30
2018-01-08T13:23:37.593Z,10.32
2018-01-08T13:24:41.757Z,18.42
2018-01-08T13:25:46.660Z,16.83
2018-01-08T13:26:50.796Z,14.57
2018-01-08T13:27:56.045Z,16.48
2018-01-08T13:29:00.506Z,10.50
2018-01-08T13:30:06.178Z,11.57
2018-01-08T13:31:10.022Z,15.55
2018-01-08T13:32:14.493Z,12.65
2018-01-08T13:33:18.954Z,16.52
2018-01-08T13:34:23.418Z,12.23
2018-01-08T13:35:27.593Z,15.85
2018-01-08T13:36:32.179Z,12.15
2018-01-08T13:37:36.691Z,17.27
2018-01-08T13:38:41.188Z,17.75
2018-01-08T13:39:45.689Z,15.15
2018-01-08T13:40:49.537Z,13.62
2018-01-08T13:41:53.348Z,12.30
2018-01-08T13:42:58.590Z,13.70
2018-01-08T13:44:03.154Z,11.63
2018-01-08T13:45:07.295Z,15.27
2018-01-08T13:46:11.971Z,12.20
2018-01-08T13:47:15.795Z,15.23
2018-01-08T13:48:19.949Z,14.73
2018-01-08T13:49:23.779Z,13.93
2018-01-08T13:50:27.582Z,11.93
2018-01-08T13:51:31.410Z,13.43
2018-01-08T13:52:36.005Z,11.00
2018-01-08T13:53:40.001Z,14.38
2018-01-08T13:54:43.989Z,12.23
2018-01-08T13:55:48.574Z,15.05